Chattaroy, WA (99003)

11:20 PM PDT on September 22, 2014 (GMT -0700)
Deer Park | Change Station
CLOSE
Current Station
Airport
Location: Deer Park,
Elevation: 2205 ft
Nearby Weather Stations

Elev 2205 ft 47.97 °N, 117.42 °W | Updated 27 minutes ago

Partly Cloudy
Partly Cloudy
64 °F
Feels Like 64 °F
N
5
Wind Variable Wind from South

Today
High -- | Low -- °F
--% Chance of Precip.
Yesterday
High -- | Low -- °F
Precip. -- in
6:36 AM 6:46 PM
Waning Crescent, 1% visible
Pressure 29.91 in
Visibility 10.0 miles
Clouds Few 12000 ft
Dew Point 50 °F
Humidity 60%
Rainfall 0.00 in
Snow Depth 0 in , 0 in , 0 in
UV 0 out of 12
Pollen 7.30 out of 12
PM2.5 Moderate
Flu Activity Not available.
METAR KDEW 230553Z AUTO 17004KT 10SM FEW120 18/10 A2993 RMK AO2 SLP127 T01780100 10283 20167 53005

More Conditions Fewer Conditions

Pressure 29.91 in
Visibility 10.0 miles
Clouds Few 12000 ft
Dew Point 50 °F
Humidity 60%
Rainfall 0.00 in
Snow Depth 0 in , 0 in , 0 in
UV 0 out of 12
Pollen 7.30 out of 12
PM2.5 Moderate
Flu Activity Not available.
METAR KDEW 230553Z AUTO 17004KT 10SM FEW120 18/10 A2993 RMK AO2 SLP127 T01780100 10283 20167 53005

More Conditions Fewer Conditions

10-Day Weather Forecast

Almanac

Astronomy

Sep. 22, 2014 Rise Set
Actual Time 6:36 AM PDT 6:46 PM PDT
Civil Twilight 6:05 AM PDT 7:17 PM PDT
Nautical Twilight 5:28 AM PDT 7:54 PM PDT
Astronomical Twilight 4:50 AM PDT 8:31 PM PDT
Moon 5:04 AM PDT (9/22) 5:59 PM PDT (9/22)
Length of Visible Light 13h 12m
Length of Day
12h 10m
Tomorrow will be 3m 27s shorter.
Waning Crescent, 1% of the Moon is Illuminated
Sep 23
Waning Crescent
Sep 24
New
Oct 1
First Quarter
Oct 8
Full
Oct 15
Last Quarter

Yesterday's Extremes

State Highs State Lows

Community

WunderPhotos

Upload Photos

1,755,608 photos uploaded!

Nearby

Air Quality

  Air Quality AQ Index Pollutant
Yesterday Good
PM10
Yesterday Good
OZONE
Current Moderate
PM2.5
Monday Good
PM10
Monday Good
OZONE
Tuesday Good
PM10
Tuesday Good
OZONE

Snow Depth

Station Depth Elevation
Spruce Springs 0 in 5700 ft
Burnt Mountain 0 in 4200 ft
Park Creek Ridge 0 in 4600 ft
Alpine Meadows 0 in 3500 ft
Bunchgrass Meadow 0 in 5000 ft

Earthquake Activity

City Distance Mag. Time & Date
No recent earthquake activity has been reported nearby.
Minimum magnitude displayed is 2.5.

Coastal Water Temperatures

Place Temperature
No Stations Reporting

Nearby Weather Stations